createdAt,value
2022-11-08T00:00:55.517Z,12.32
2022-11-08T00:05:57.492Z,12.23
2022-11-08T00:10:59.705Z,12.18
2022-11-08T00:15:54.214Z,12.10
2022-11-08T00:20:43.880Z,12.03
2022-11-08T00:25:33.539Z,11.97
2022-11-08T00:30:23.143Z,11.95
2022-11-08T00:35:15.301Z,11.91
2022-11-08T00:40:05.068Z,11.88
2022-11-08T00:44:55.586Z,11.84
2022-11-08T00:49:45.683Z,11.85
2022-11-08T00:54:37.895Z,11.81
2022-11-08T00:59:27.415Z,11.75
2022-11-08T01:04:17.933Z,11.71
2022-11-08T01:09:07.788Z,11.68
2022-11-08T01:14:01.811Z,11.65
2022-11-08T01:18:52.304Z,11.63
2022-11-08T01:23:42.460Z,11.62
2022-11-08T01:28:32.064Z,11.60
2022-11-08T01:33:24.319Z,11.57
2022-11-08T01:38:13.808Z,11.56
2022-11-08T01:43:03.350Z,11.56
2022-11-08T01:47:52.734Z,11.55
2022-11-08T01:52:46.564Z,11.52
2022-11-08T01:57:37.858Z,11.50
2022-11-08T02:02:27.487Z,11.48
2022-11-08T02:07:18.752Z,11.37
2022-11-08T02:12:12.052Z,11.33
2022-11-08T02:17:01.563Z,11.25
2022-11-08T02:21:54.505Z,11.22
2022-11-08T02:26:47.327Z,11.20
2022-11-08T02:31:36.742Z,11.16
2022-11-08T02:36:27.354Z,11.12
2022-11-08T02:41:16.915Z,11.11
2022-11-08T02:46:09.103Z,11.08
2022-11-08T02:50:58.633Z,11.04
2022-11-08T02:55:48.325Z,11.02
2022-11-08T03:00:37.750Z,11.04
2022-11-08T03:05:30.345Z,11.00
2022-11-08T03:10:21.799Z,10.97
2022-11-08T03:15:13.529Z,10.87
2022-11-08T03:20:03.439Z,10.83
2022-11-08T03:24:56.390Z,10.82
2022-11-08T03:29:45.813Z,10.85
2022-11-08T03:34:38.159Z,10.75
2022-11-08T03:39:27.851Z,10.80
2022-11-08T03:44:20.202Z,10.88
2022-11-08T03:49:10.226Z,10.89
2022-11-08T03:54:00.142Z,10.79
2022-11-08T03:58:49.869Z,10.84
2022-11-08T04:03:42.425Z,10.82
2022-11-08T04:08:32.461Z,10.99
2022-11-08T04:13:34.671Z,11.00
2022-11-08T04:18:37.589Z,11.02
2022-11-08T04:23:30.386Z,11.03
2022-11-08T04:28:20.248Z,10.98
2022-11-08T04:33:09.966Z,10.99
2022-11-08T04:38:00.471Z,10.98
2022-11-08T04:42:53.420Z,11.00
2022-11-08T04:47:48.078Z,11.01
2022-11-08T04:52:37.847Z,11.05
2022-11-08T04:57:27.263Z,11.06
2022-11-08T05:02:19.699Z,11.05
2022-11-08T05:07:09.986Z,11.06
2022-11-08T05:11:59.789Z,11.04
2022-11-08T05:16:49.451Z,10.98
2022-11-08T05:21:53.851Z,10.98
2022-11-08T05:26:44.794Z,10.95
2022-11-08T05:31:34.186Z,10.91
2022-11-08T05:36:24.628Z,10.89
2022-11-08T05:41:17.910Z,10.88
2022-11-08T05:46:07.810Z,10.85
2022-11-08T05:50:57.783Z,10.84
2022-11-08T05:55:49.672Z,10.86
2022-11-08T06:00:41.831Z,10.89
2022-11-08T06:05:31.375Z,10.88
2022-11-08T06:10:22.401Z,10.89
2022-11-08T06:15:12.885Z,10.94
2022-11-08T06:20:04.955Z,10.98
2022-11-08T06:24:54.352Z,10.95
2022-11-08T06:29:44.617Z,10.91
2022-11-08T06:34:34.506Z,10.89
2022-11-08T06:39:26.820Z,10.87
2022-11-08T06:44:18.258Z,10.90
2022-11-08T06:49:07.719Z,10.93
2022-11-08T06:53:57.184Z,11.01
2022-11-08T06:58:49.324Z,11.04
2022-11-08T07:03:39.186Z,11.08
2022-11-08T07:08:28.659Z,11.11
2022-11-08T07:13:18.319Z,11.13
2022-11-08T07:18:11.486Z,11.13
2022-11-08T07:23:01.151Z,11.15
2022-11-08T07:27:50.547Z,11.20
2022-11-08T07:32:40.061Z,11.25
2022-11-08T07:37:32.532Z,11.27
2022-11-08T07:42:22.346Z,11.35
2022-11-08T07:47:27.522Z,11.41
2022-11-08T07:52:19.052Z,11.48
2022-11-08T07:57:11.332Z,11.50
2022-11-08T08:02:00.849Z,11.54
2022-11-08T08:06:52.756Z,11.59
2022-11-08T08:11:45.710Z,11.63
2022-11-08T08:16:38.383Z,11.66
2022-11-08T08:21:27.770Z,11.69
2022-11-08T08:26:18.729Z,11.75
2022-11-08T08:31:09.628Z,11.79
2022-11-08T08:36:02.600Z,11.83
2022-11-08T08:40:52.114Z,11.86
2022-11-08T08:45:42.018Z,11.90
2022-11-08T08:50:32.778Z,11.93
2022-11-08T08:55:24.886Z,11.97
2022-11-08T09:05:26.857Z,12.04
2022-11-08T09:10:16.435Z,12.06
2022-11-08T09:15:09.981Z,12.11
2022-11-08T09:19:59.485Z,12.19
2022-11-08T09:24:49.068Z,12.37
2022-11-08T09:29:41.047Z,12.47
2022-11-08T09:34:33.098Z,12.54
2022-11-08T09:39:24.803Z,12.60
2022-11-08T09:44:21.176Z,12.64
2022-11-08T09:49:15.973Z,12.68
2022-11-08T09:54:10.523Z,12.75
2022-11-08T09:59:02.332Z,12.77
2022-11-08T10:03:55.104Z,12.77
2022-11-08T10:08:50.189Z,12.77
2022-11-08T10:13:46.773Z,12.78
2022-11-08T10:19:03.225Z,12.77
2022-11-08T10:23:58.591Z,12.78
2022-11-08T10:28:56.815Z,12.79
2022-11-08T10:33:48.342Z,12.80
2022-11-08T10:38:39.725Z,12.83
2022-11-08T10:43:34.030Z,12.88
2022-11-08T10:48:26.054Z,12.92
2022-11-08T10:53:19.830Z,12.96
2022-11-08T10:58:29.923Z,13.05
2022-11-08T11:03:30.053Z,13.14
2022-11-08T11:08:23.082Z,13.23
2022-11-08T11:13:14.522Z,13.31
2022-11-08T11:18:04.355Z,13.44
2022-11-08T11:22:54.981Z,13.56
2022-11-08T11:27:53.021Z,13.62
2022-11-08T11:32:44.177Z,13.67
2022-11-08T11:37:37.644Z,13.78
2022-11-08T11:42:46.884Z,14.05
2022-11-08T11:47:43.840Z,14.34
2022-11-08T11:52:33.586Z,14.60
2022-11-08T11:57:26.949Z,14.79
2022-11-08T12:02:25.988Z,14.91
2022-11-08T12:07:21.667Z,14.97
2022-11-08T12:12:18.613Z,15.10
2022-11-08T12:17:21.330Z,15.22
2022-11-08T12:22:21.674Z,15.27
2022-11-08T12:27:19.038Z,15.41
2022-11-08T12:32:29.354Z,15.53
2022-11-08T12:37:22.494Z,15.54
2022-11-08T12:42:24.722Z,15.61
2022-11-08T12:47:20.966Z,15.62
2022-11-08T12:52:24.092Z,15.50
2022-11-08T12:57:14.977Z,15.46
2022-11-08T13:02:18.097Z,15.37
2022-11-08T13:07:11.411Z,15.29
2022-11-08T13:12:04.991Z,15.25
2022-11-08T13:17:09.331Z,15.29
2022-11-08T13:22:01.699Z,15.24
2022-11-08T13:26:58.394Z,15.19
2022-11-08T13:31:53.065Z,15.12
2022-11-08T13:36:49.963Z,15.10
2022-11-08T13:42:03.211Z,15.06
2022-11-08T13:46:52.632Z,15.03
2022-11-08T13:51:43.203Z,14.96
2022-11-08T13:56:47.450Z,14.94
2022-11-08T14:01:57.969Z,14.90
2022-11-08T14:06:55.529Z,14.86
2022-11-08T14:11:52.860Z,14.84
2022-11-08T14:16:50.345Z,14.85
2022-11-08T14:21:39.772Z,14.84
2022-11-08T14:26:32.473Z,14.85
2022-11-08T14:31:27.306Z,14.89
2022-11-08T14:36:18.450Z,14.93
2022-11-08T14:41:09.645Z,15.00
2022-11-08T14:46:02.612Z,15.03
2022-11-08T14:50:54.060Z,15.02
2022-11-08T14:55:43.542Z,15.07
2022-11-08T15:00:34.037Z,15.11
2022-11-08T15:05:40.396Z,15.11
2022-11-08T15:10:32.924Z,15.03
2022-11-08T15:15:23.954Z,14.96
2022-11-08T15:20:21.880Z,14.91
2022-11-08T15:25:20.745Z,14.83
2022-11-08T15:30:18.326Z,14.75
2022-11-08T15:35:09.211Z,14.67
2022-11-08T15:40:00.173Z,14.59
2022-11-08T15:45:03.376Z,14.52
2022-11-08T15:49:55.420Z,14.46
2022-11-08T15:54:44.857Z,14.38
2022-11-08T15:59:37.161Z,14.31
2022-11-08T16:04:27.861Z,14.24
2022-11-08T16:09:20.266Z,14.20
2022-11-08T16:14:15.593Z,14.13
2022-11-08T16:19:06.409Z,14.08
2022-11-08T16:23:55.823Z,14.04
2022-11-08T16:28:51.142Z,13.97
2022-11-08T16:33:40.575Z,13.89
2022-11-08T16:38:33.577Z,13.85
2022-11-08T16:43:23.053Z,13.82
2022-11-08T16:48:17.767Z,13.81
2022-11-08T16:53:12.134Z,13.74
2022-11-08T16:58:01.592Z,13.71
2022-11-08T17:02:52.619Z,13.61
2022-11-08T17:07:44.852Z,13.56
2022-11-08T17:12:34.304Z,13.51
2022-11-08T17:17:23.860Z,13.48
2022-11-08T17:22:13.400Z,13.46
2022-11-08T17:27:06.794Z,13.44
2022-11-08T17:31:56.474Z,13.44
2022-11-08T17:36:46.292Z,13.45
2022-11-08T17:41:35.776Z,13.48
2022-11-08T17:46:27.862Z,13.49
2022-11-08T17:51:17.499Z,13.57
2022-11-08T17:56:08.602Z,13.65
2022-11-08T18:00:59.435Z,13.74
2022-11-08T18:05:57.611Z,13.78
2022-11-08T18:10:47.846Z,13.82
2022-11-08T18:15:37.400Z,13.87
2022-11-08T18:20:26.884Z,13.89
2022-11-08T18:25:18.853Z,13.92
2022-11-08T18:30:08.854Z,13.90
2022-11-08T18:34:58.706Z,13.91
2022-11-08T18:39:48.127Z,13.93
2022-11-08T18:44:43.307Z,13.94
2022-11-08T18:49:32.759Z,13.93
2022-11-08T18:54:22.535Z,13.90
2022-11-08T18:59:12.048Z,13.87
2022-11-08T19:04:05.993Z,13.85
2022-11-08T19:19:16.996Z,13.72
2022-11-08T19:24:10.843Z,13.67
2022-11-08T19:29:01.345Z,13.67
2022-11-08T19:33:51.331Z,13.62
2022-11-08T19:38:43.712Z,13.61
2022-11-08T19:43:33.165Z,13.59
2022-11-08T19:48:22.880Z,13.56
2022-11-08T19:53:12.618Z,13.55
2022-11-08T19:58:04.603Z,13.52
2022-11-08T20:02:54.122Z,13.52
2022-11-08T20:07:44.675Z,13.52
2022-11-08T20:12:34.472Z,13.53
2022-11-08T20:17:26.511Z,13.54
2022-11-08T20:22:15.960Z,13.53
2022-11-08T20:27:05.704Z,13.51
2022-11-08T20:31:56.583Z,13.52
2022-11-08T20:36:48.626Z,13.51
2022-11-08T20:41:39.518Z,13.56
2022-11-08T20:46:29.749Z,13.59
2022-11-08T20:51:20.285Z,13.64
2022-11-08T20:56:14.675Z,13.66
2022-11-08T21:01:05.013Z,13.66
2022-11-08T21:05:55.230Z,13.66
2022-11-08T21:10:45.078Z,13.62
2022-11-08T21:15:39.784Z,13.59
2022-11-08T21:20:29.208Z,13.61
2022-11-08T21:25:21.837Z,13.60
2022-11-08T21:30:11.907Z,13.58
2022-11-08T21:35:03.999Z,13.55
2022-11-08T21:39:53.437Z,13.53
2022-11-08T21:44:42.882Z,13.51
2022-11-08T21:49:32.643Z,13.50
2022-11-08T21:54:25.156Z,13.48
2022-11-08T21:59:14.776Z,13.47
2022-11-08T22:04:04.317Z,13.46
2022-11-08T22:08:53.757Z,13.50
2022-11-08T22:13:45.798Z,13.48
2022-11-08T22:18:58.696Z,13.48
2022-11-08T22:23:46.657Z,13.47
2022-11-08T22:28:36.112Z,13.49
2022-11-08T22:33:28.387Z,13.47
2022-11-08T22:38:18.686Z,13.49
2022-11-08T22:43:08.373Z,13.51
2022-11-08T22:47:57.803Z,13.56
2022-11-08T22:52:50.064Z,13.58
2022-11-08T22:57:43.019Z,13.61
2022-11-08T23:02:33.351Z,13.66
2022-11-08T23:07:23.043Z,13.70
2022-11-08T23:12:36.898Z,13.70
2022-11-08T23:17:26.335Z,13.71
2022-11-08T23:22:29.109Z,13.73
2022-11-08T23:27:34.538Z,13.73
2022-11-08T23:32:24.006Z,13.72
2022-11-08T23:37:13.416Z,13.72
2022-11-08T23:42:15.264Z,13.71
2022-11-08T23:47:10.488Z,13.66
2022-11-08T23:52:00.311Z,13.63
2022-11-08T23:56:50.338Z,13.64
